createdAt,value
2023-04-04T00:00:12.768Z,74.00
2023-04-04T00:05:14.871Z,74.00
2023-04-04T00:10:17.092Z,73.90
2023-04-04T00:15:19.317Z,73.70
2023-04-04T00:20:21.319Z,73.90
2023-04-04T00:25:23.805Z,73.80
2023-04-04T00:30:26.103Z,73.80
2023-04-04T00:35:28.093Z,73.70
2023-04-04T00:40:30.106Z,73.60
2023-04-04T00:45:32.710Z,73.60
2023-04-04T00:50:34.616Z,73.60
2023-04-04T00:55:38.822Z,73.60
2023-04-04T01:00:41.128Z,73.40
2023-04-04T01:05:43.090Z,73.40
2023-04-04T01:10:45.143Z,73.50
2023-04-04T01:15:47.703Z,73.40
2023-04-04T01:21:22.891Z,73.30
2023-04-04T01:26:27.028Z,73.30
2023-04-04T01:31:42.750Z,73.30
2023-04-04T01:37:03.021Z,73.30
2023-04-04T01:42:10.007Z,73.20
2023-04-04T01:47:15.845Z,73.10
2023-04-04T01:52:18.700Z,73.10
2023-04-04T01:57:20.524Z,73.10
2023-04-04T02:02:22.636Z,73.00
2023-04-04T02:07:24.495Z,73.00
2023-04-04T02:12:26.585Z,73.00
2023-04-04T02:17:29.225Z,73.10
2023-04-04T02:22:31.409Z,73.80
2023-04-04T02:27:33.238Z,73.20
2023-04-04T02:32:37.036Z,73.20
2023-04-04T02:37:41.287Z,73.10
2023-04-04T02:42:45.686Z,73.20
2023-04-04T02:47:52.540Z,73.20
2023-04-04T02:53:03.413Z,73.10
2023-04-04T02:58:08.447Z,73.10
2023-04-04T03:03:10.530Z,73.10
2023-04-04T03:08:17.320Z,73.10
2023-04-04T03:13:19.118Z,73.10
2023-04-04T03:18:21.441Z,73.10
2023-04-04T03:23:23.391Z,73.00
2023-04-04T03:28:26.350Z,73.00
2023-04-04T03:33:28.272Z,73.00
2023-04-04T03:38:30.422Z,73.00
2023-04-04T03:43:33.170Z,72.80
2023-04-04T03:48:34.950Z,73.00
2023-04-04T03:53:39.421Z,72.90
2023-04-04T03:58:41.488Z,72.80
2023-04-04T04:03:47.439Z,72.80
2023-04-04T04:08:49.395Z,72.70
2023-04-04T04:13:51.165Z,72.70
2023-04-04T04:18:53.462Z,72.70
2023-04-04T04:24:07.246Z,72.70
2023-04-04T04:29:09.133Z,72.70
2023-04-04T04:34:12.137Z,72.70
2023-04-04T04:39:16.239Z,72.80
2023-04-04T04:44:32.465Z,72.90
2023-04-04T04:49:34.506Z,72.90
2023-04-04T04:54:41.093Z,72.90
2023-04-04T04:59:43.146Z,72.90
2023-04-04T05:04:47.235Z,73.00
2023-04-04T05:09:51.490Z,73.10
2023-04-04T05:14:57.242Z,72.90
2023-04-04T05:19:59.752Z,72.90
2023-04-04T05:25:01.797Z,72.80
2023-04-04T05:30:04.427Z,72.90
2023-04-04T05:35:17.368Z,72.80
2023-04-04T05:40:20.376Z,73.00
2023-04-04T05:45:27.521Z,73.00
2023-04-04T05:50:31.573Z,73.10
2023-04-04T05:55:37.315Z,73.00
2023-04-04T06:00:40.163Z,73.10
2023-04-04T06:05:44.473Z,73.20
2023-04-04T06:10:47.299Z,73.30
2023-04-04T06:15:49.342Z,73.30
2023-04-04T06:20:55.057Z,73.40
2023-04-04T06:25:57.196Z,73.30
2023-04-04T06:31:00.191Z,73.40
2023-04-04T06:36:06.309Z,73.50
2023-04-04T06:41:08.317Z,73.60
2023-04-04T06:46:10.639Z,73.80
2023-04-04T06:51:13.014Z,73.70
2023-04-04T06:56:19.638Z,73.80
2023-04-04T07:01:21.765Z,73.80
2023-04-04T07:06:25.887Z,73.70
2023-04-04T07:11:29.229Z,73.90
2023-04-04T07:16:31.709Z,73.90
2023-04-04T07:21:33.708Z,74.10
2023-04-04T07:26:35.626Z,74.30
2023-04-04T07:31:37.641Z,74.30
2023-04-04T07:36:39.688Z,74.30
2023-04-04T07:41:41.959Z,74.40
2023-04-04T07:46:44.856Z,74.50
2023-04-04T07:51:49.003Z,74.50
2023-04-04T07:56:53.878Z,74.60
2023-04-04T08:01:55.832Z,74.60
2023-04-04T08:06:57.875Z,74.60
2023-04-04T08:12:00.211Z,74.80
2023-04-04T08:17:02.232Z,74.90
2023-04-04T08:22:04.245Z,74.90
2023-04-04T08:27:06.861Z,75.00
2023-04-04T08:32:09.410Z,75.30
2023-04-04T08:37:11.561Z,76.90
2023-04-04T08:42:16.878Z,78.40
2023-04-04T08:47:21.381Z,79.10
2023-04-04T08:52:25.468Z,79.20
2023-04-04T08:57:27.415Z,78.90
2023-04-04T09:03:00.023Z,78.90
2023-04-04T09:08:04.961Z,78.50
2023-04-04T09:13:15.537Z,78.40
2023-04-04T09:18:19.099Z,78.30
2023-04-04T09:23:23.476Z,78.40
2023-04-04T09:28:25.479Z,78.10
2023-04-04T09:33:27.670Z,78.00
2023-04-04T09:38:31.457Z,78.20
2023-04-04T09:43:35.425Z,78.00
2023-04-04T09:48:37.982Z,78.00
2023-04-04T09:53:42.273Z,77.90
2023-04-04T09:59:02.301Z,77.80
2023-04-04T10:04:06.463Z,77.70
2023-04-04T10:09:08.938Z,76.60
2023-04-04T10:14:11.635Z,76.70
2023-04-04T10:19:17.862Z,76.60
2023-04-04T10:24:19.756Z,76.80
2023-04-04T10:29:22.475Z,76.80
2023-04-04T10:34:44.953Z,77.00
2023-04-04T10:39:55.746Z,76.90
2023-04-04T10:45:03.543Z,76.70
2023-04-04T10:50:12.521Z,76.60
2023-04-04T10:55:15.949Z,76.70
2023-04-04T11:00:19.518Z,76.60
2023-04-04T11:05:47.445Z,76.80
2023-04-04T11:10:53.892Z,76.70
2023-04-04T11:15:58.938Z,76.70
2023-04-04T11:21:05.606Z,76.80
2023-04-04T11:26:08.554Z,76.80
2023-04-04T11:31:20.354Z,77.00
2023-04-04T11:36:50.754Z,76.90
2023-04-04T11:41:57.200Z,76.80
2023-04-04T11:47:06.039Z,76.70
2023-04-04T11:52:12.698Z,76.60
2023-04-04T11:57:16.864Z,76.80
2023-04-04T12:02:29.740Z,76.80
2023-04-04T12:07:31.838Z,76.60
2023-04-04T12:12:38.041Z,76.50
2023-04-04T12:17:44.375Z,76.30
2023-04-04T12:22:50.030Z,76.30
2023-04-04T12:27:53.289Z,76.40
2023-04-04T12:32:55.334Z,76.40
2023-04-04T12:38:13.787Z,76.20
2023-04-04T12:43:20.786Z,76.20
2023-04-04T12:48:28.728Z,76.20
2023-04-04T12:53:50.986Z,76.20
2023-04-04T12:58:53.014Z,75.90
2023-04-04T13:03:54.991Z,76.10
2023-04-04T13:08:57.295Z,76.00
2023-04-04T13:14:04.103Z,76.00
2023-04-04T13:19:06.633Z,76.00
2023-04-04T13:24:08.507Z,76.00
2023-04-04T13:29:10.334Z,75.90
2023-04-04T13:34:12.124Z,76.10
2023-04-04T13:39:13.978Z,75.90
2023-04-04T13:44:16.643Z,75.20
2023-04-04T13:49:18.609Z,75.20
2023-04-04T13:54:21.087Z,75.20
2023-04-04T13:59:23.103Z,75.20
2023-04-04T14:04:25.022Z,75.10
2023-04-04T14:09:26.845Z,75.00
2023-04-04T14:14:28.664Z,75.10
2023-04-04T14:19:30.517Z,75.00
2023-04-04T14:24:32.341Z,74.80
2023-04-04T14:29:34.200Z,74.60
2023-04-04T14:34:36.210Z,74.50
2023-04-04T14:39:38.134Z,74.50
2023-04-04T14:44:42.084Z,74.30
2023-04-04T14:49:44.012Z,74.30
2023-04-04T14:54:45.999Z,74.20
2023-04-04T14:59:48.024Z,74.20
2023-04-04T15:04:49.894Z,74.00
2023-04-04T15:09:51.820Z,73.90
2023-04-04T15:14:54.017Z,73.70
2023-04-04T15:19:56.058Z,73.40
2023-04-04T15:24:57.899Z,73.30
2023-04-04T15:29:59.960Z,73.30
2023-04-04T15:35:03.979Z,73.20
2023-04-04T15:40:06.365Z,73.10
2023-04-04T15:45:09.342Z,72.80
2023-04-04T15:50:11.863Z,72.70
2023-04-04T15:55:17.102Z,72.70
2023-04-04T16:00:19.304Z,72.60
2023-04-04T16:05:21.118Z,72.40
2023-04-04T16:10:22.990Z,72.30
2023-04-04T16:15:24.896Z,72.20
2023-04-04T16:20:27.314Z,72.00
2023-04-04T16:25:29.206Z,71.80
2023-04-04T16:30:32.094Z,71.80
2023-04-04T16:35:34.615Z,71.50
2023-04-04T16:40:36.744Z,71.40
2023-04-04T16:45:38.541Z,71.40
2023-04-04T16:50:40.653Z,71.10
2023-04-04T16:55:42.743Z,71.20
2023-04-04T17:00:44.783Z,71.00
2023-04-04T17:05:47.509Z,70.90
2023-04-04T17:10:49.377Z,70.70
2023-04-04T17:15:51.548Z,70.70
2023-04-04T17:20:53.392Z,70.40
2023-04-04T17:25:57.951Z,70.20
2023-04-04T17:30:59.881Z,70.00
2023-04-04T17:36:04.448Z,69.90
2023-04-04T17:41:07.633Z,69.60
2023-04-04T17:46:09.694Z,69.30
2023-04-04T17:51:11.669Z,69.10
2023-04-04T17:56:13.761Z,68.80
2023-04-04T18:01:16.054Z,68.70
2023-04-04T18:06:18.163Z,68.50
2023-04-04T18:11:19.952Z,68.30
2023-04-04T18:16:22.261Z,68.10
2023-04-04T18:21:27.948Z,67.90
2023-04-04T18:26:30.539Z,67.80
2023-04-04T18:31:32.374Z,67.80
2023-04-04T18:36:36.325Z,67.70
2023-04-04T18:41:40.248Z,67.50
2023-04-04T18:46:42.399Z,67.50
2023-04-04T18:51:44.263Z,67.40
2023-04-04T18:56:54.388Z,67.30
2023-04-04T19:01:58.029Z,67.30
2023-04-04T19:07:05.546Z,67.20
2023-04-04T19:12:07.511Z,68.30
2023-04-04T19:17:11.243Z,68.10
2023-04-04T19:22:13.326Z,68.10
2023-04-04T19:27:15.741Z,68.00
2023-04-04T19:32:19.567Z,67.90
2023-04-04T19:37:21.455Z,67.80
2023-04-04T19:42:27.930Z,67.80
2023-04-04T19:47:29.852Z,67.70
2023-04-04T19:52:31.807Z,67.60
2023-04-04T19:57:34.148Z,67.60
2023-04-04T20:02:47.984Z,67.60
2023-04-04T20:07:51.786Z,67.40
2023-04-04T20:12:54.090Z,67.30
2023-04-04T20:17:56.141Z,67.20
2023-04-04T20:22:58.091Z,67.10
2023-04-04T20:28:03.653Z,67.20
2023-04-04T20:33:28.663Z,66.90
2023-04-04T20:38:30.902Z,66.90
2023-04-04T20:43:32.999Z,67.00
2023-04-04T20:48:39.869Z,66.80
2023-04-04T20:53:41.727Z,66.70
2023-04-04T20:58:43.594Z,66.70
2023-04-04T21:03:47.168Z,66.60
2023-04-04T21:08:50.562Z,66.50
2023-04-04T21:13:53.887Z,66.60
2023-04-04T21:19:00.967Z,66.50
2023-04-04T21:24:06.849Z,66.50
2023-04-04T21:29:17.808Z,66.50
2023-04-04T21:34:21.694Z,66.50
2023-04-04T21:39:31.307Z,66.40
2023-04-04T21:44:33.196Z,66.30
2023-04-04T21:49:34.986Z,66.30
2023-04-04T21:54:36.857Z,66.40
2023-04-04T21:59:38.716Z,66.30
2023-04-04T22:04:40.625Z,66.20
2023-04-04T22:09:43.007Z,66.20
2023-04-04T22:14:45.437Z,66.30
2023-04-04T22:19:58.748Z,66.20
2023-04-04T22:25:03.526Z,66.20
2023-04-04T22:30:07.117Z,66.20
2023-04-04T22:35:15.198Z,66.10
2023-04-04T22:40:17.374Z,66.20
2023-04-04T22:45:19.291Z,66.10
2023-04-04T22:50:23.438Z,66.20
2023-04-04T22:55:26.575Z,66.20
2023-04-04T23:00:28.464Z,66.20
2023-04-04T23:05:30.506Z,66.20
2023-04-04T23:10:32.391Z,66.20
2023-04-04T23:15:37.609Z,66.20
2023-04-04T23:20:40.026Z,66.30
2023-04-04T23:25:42.202Z,66.20
2023-04-04T23:30:44.059Z,66.20
2023-04-04T23:35:46.014Z,66.20
2023-04-04T23:40:47.900Z,66.10
2023-04-04T23:45:50.058Z,66.10
2023-04-04T23:50:54.502Z,66.20
2023-04-04T23:55:56.454Z,66.30
